SQ3KKR-15 Weather Reports


Display with metric or nautical units.
time (UTC)temp
F
wind
direction
speed
MPH
gust
MPH
rain 1hr
in
rain 24hr
in
rain mn
in
humidity
%
barometer
mb
20210727175249 89 0.0 0.0 0.00 0.00 0.00 31 1008.2
20210727172249 88 0.0 0.0 0.00 0.00 0.00 33 1008.2
20210727165249 88 0.0 0.0 0.00 0.00 0.00 31 1008.2
20210727163250 90 0.0 0.0 0.00 0.00 0.00 31 1008.1
20210727162249 89 0.0 0.0 0.00 0.00 0.00 32 1008.2
20210727161249 89 0.0 0.0 0.00 0.00 0.00 32 1008.3
20210727155249 90 0.0 0.0 0.00 0.00 0.00 30 1008.4
20210727154249 90 0.0 0.0 0.00 0.00 0.00 31 1008.4
20210727153250 91 0.0 0.0 0.00 0.00 0.00 30 1008.3
20210727152249 90 0.0 0.0 0.00 0.00 0.00 31 1008.4
20210727151249 89 0.0 0.0 0.00 0.00 0.00 31 1008.4
20210727150250 90 0.0 0.0 0.00 0.00 0.00 30 1008.3
20210727144249 91 0.0 0.0 0.00 0.00 0.00 30 1008.3
20210727143249 90 0.0 0.0 0.00 0.00 0.00 31 1008.3
20210727142249 90 0.0 0.0 0.00 0.00 0.00 31 1008.3
20210727141249 89 0.0 0.0 0.00 0.00 0.00 32 1008.3
20210727140249 89 0.0 0.0 0.00 0.00 0.00 31 1008.3
20210727134249 90 0.0 0.0 0.00 0.00 0.00 31 1008.3
20210727133249 90 0.0 0.0 0.00 0.00 0.00 33 1008.4
20210727132249 89 0.0 0.0 0.00 0.00 0.00 33 1008.5
20210727130249 87 0.0 0.0 0.00 0.00 0.00 35 1008.5
20210727125249 87 0.0 0.0 0.00 0.00 0.00 35 1008.5
20210727123249 86 0.0 0.0 0.00 0.00 0.00 36 1008.6
20210727122249 86 0.0 0.0 0.00 0.00 0.00 36 1008.6
20210727121249 86 0.0 0.0 0.00 0.00 0.00 37 1008.7
20210727120249 86 0.0 0.0 0.00 0.00 0.00 38 1008.7
20210727115248 87 0.0 0.0 0.00 0.00 0.00 39 1008.8
20210727114249 87 0.0 0.0 0.00 0.00 0.00 40 1008.8
20210727112249 85 0.0 0.0 0.00 0.00 0.00 42 1009.1
20210727111249 84 0.0 0.0 0.00 0.00 0.00 43 1009.1
20210727104248 83 0.0 0.0 0.00 0.00 0.00 44 1009.1
20210727101249 81 0.0 0.0 0.00 0.00 0.00 47 1009.2
20210727095248 80 0.0 0.0 0.00 0.00 0.00 47 1009.1
20210727094248 80 0.0 0.0 0.00 0.00 0.00 48 1009.1
20210727093249 80 0.0 0.0 0.00 0.00 0.00 50 1009.1
20210727092249 79 0.0 0.0 0.00 0.00 0.00 52 1009.2
20210727090249 78 0.0 0.0 0.00 0.00 0.00 55 1009.2
20210727085248 78 0.0 0.0 0.00 0.00 0.00 56 1009.2
20210727084248 78 0.0 0.0 0.00 0.00 0.00 58 1009.3
20210727083249 77 0.0 0.0 0.00 0.00 0.00 59 1009.2
20210727082248 77 0.0 0.0 0.00 0.00 0.00 59 1009.2
20210727075248 77 0.0 0.0 0.00 0.00 0.00 60 1009.1
20210727073248 76 0.0 0.0 0.00 0.00 0.00 61 1009.2
20210727071248 77 0.0 0.0 0.00 0.00 0.00 60 1009.2
20210727070249 77 0.0 0.0 0.00 0.00 0.00 60 1009.2
20210727065248 77 0.0 0.0 0.00 0.00 0.00 61 1009.1
20210727064248 76 0.0 0.0 0.00 0.00 0.00 63 1009.1
20210727063249 76 0.0 0.0 0.00 0.00 0.00 63 1008.9
20210727060248 74 0.0 0.0 0.00 0.00 0.00 67 1009.0
20210727055248 73 0.0 0.0 0.00 0.00 0.00 67 1009.0
20210727051248 73 0.0 0.0 0.00 0.00 0.00 69 1008.8
20210727044248 70 0.0 0.0 0.00 0.00 0.00 72 1008.7
20210727040248 70 0.0 0.0 0.00 0.00 0.00 72 1008.5
20210727035248 70 0.0 0.0 0.00 0.00 0.00 72 1008.3
20210727033248 70 0.0 0.0 0.00 0.00 0.00 72 1008.2
20210727032248 70 0.0 0.0 0.00 0.00 0.00 71 1008.0
20210727025248 71 0.0 0.0 0.00 0.00 0.00 70 1008.1
20210727024248 70 0.0 0.0 0.00 0.00 0.00 71 1008.2
20210727022248 71 0.0 0.0 0.00 0.00 0.00 70 1008.1
20210727020248 70 0.0 0.0 0.00 0.00 0.00 71 1008.1
20210727015248 70 0.0 0.0 0.00 0.00 0.00 71 1008.1
20210727005247 70 0.0 0.0 0.00 0.00 0.00 72 1008.3
20210727002247 70 0.0 0.0 0.00 0.00 0.00 73 1008.3
20210726234247 70 0.0 0.0 0.00 0.00 0.00 72 1008.5
20210726232247 69 0.0 0.0 0.00 0.00 0.00 69 1008.7
20210726231248 69 0.0 0.0 0.00 0.00 0.00 70 1008.6
20210726230247 69 0.0 0.0 0.00 0.00 0.00 70 1008.9
20210726225247 68 0.0 0.0 0.00 0.00 0.00 69 1008.9
20210726224247 68 0.0 0.0 0.00 0.00 0.00 70 1008.8
20210726223248 68 0.0 0.0 0.00 0.00 0.00 70 1008.9
20210726222247 68 0.0 0.0 0.00 0.00 0.00 69 1008.7
20210726220248 69 0.0 0.0 0.00 0.00 0.00 68 1008.7
20210726215247 69 0.0 0.0 0.00 0.00 0.00 67 1008.7
20210726213248 69 0.0 0.0 0.00 0.00 0.00 67 1008.3
20210726212247 70 0.0 0.0 0.00 0.00 0.00 67 1008.3
20210726211247 70 0.0 0.0 0.00 0.00 0.00 68 1008.0
20210726205247 71 0.0 0.0 0.00 0.00 0.00 64 1008.0
20210726204247 72 0.0 0.0 0.00 0.00 0.00 64 1008.2
20210726203247 72 0.0 0.0 0.00 0.00 0.00 63 1008.3
20210726193247 78 0.0 0.0 0.00 0.00 0.00 51 1007.9
20210726192247 78 0.0 0.0 0.00 0.00 0.00 51 1007.3
20210726190247 79 0.0 0.0 0.00 0.00 0.00 49 1007.3
20210726185247 79 0.0 0.0 0.00 0.00 0.00 47 1007.1
20210726184247 81 0.0 0.0 0.00 0.00 0.00 46 1007.0
20210726182247 82 0.0 0.0 0.00 0.00 0.00 42 1006.8
20210726181247 85 0.0 0.0 0.00 0.00 0.00 42 1006.8